sensor_id;sensor_type;location;lat;lon;timestamp;temperature;humidity
67572;SHT31;54397;47.506;19.158;2023-03-12T00:03:01;4.90;55.85
67572;SHT31;54397;47.506;19.158;2023-03-12T00:06:22;4.55;55.92
67572;SHT31;54397;47.506;19.158;2023-03-12T00:09:44;4.77;55.75
67572;SHT31;54397;47.506;19.158;2023-03-12T00:13:07;4.89;54.81
67572;SHT31;54397;47.506;19.158;2023-03-12T00:16:29;5.03;54.22
67572;SHT31;54397;47.506;19.158;2023-03-12T00:19:54;4.90;54.73
67572;SHT31;54397;47.506;19.158;2023-03-12T00:23:18;4.79;55.05
67572;SHT31;54397;47.506;19.158;2023-03-12T00:26:39;4.77;54.74
67572;SHT31;54397;47.506;19.158;2023-03-12T00:30:02;4.76;54.62
67572;SHT31;54397;47.506;19.158;2023-03-12T00:33:27;4.71;55.17
67572;SHT31;54397;47.506;19.158;2023-03-12T00:36:49;4.71;54.18
67572;SHT31;54397;47.506;19.158;2023-03-12T00:40:12;4.27;52.83
67572;SHT31;54397;47.506;19.158;2023-03-12T00:43:34;4.49;54.36
67572;SHT31;54397;47.506;19.158;2023-03-12T00:46:56;4.56;54.17
67572;SHT31;54397;47.506;19.158;2023-03-12T00:50:20;4.64;54.33
67572;SHT31;54397;47.506;19.158;2023-03-12T00:53:44;4.61;53.85
67572;SHT31;54397;47.506;19.158;2023-03-12T00:57:06;4.47;54.53
67572;SHT31;54397;47.506;19.158;2023-03-12T01:00:28;4.54;54.73
67572;SHT31;54397;47.506;19.158;2023-03-12T01:03:50;4.68;54.22
67572;SHT31;54397;47.506;19.158;2023-03-12T01:07:14;4.64;53.62
67572;SHT31;54397;47.506;19.158;2023-03-12T01:10:39;4.75;52.85
67572;SHT31;54397;47.506;19.158;2023-03-12T01:14:02;4.75;53.23
67572;SHT31;54397;47.506;19.158;2023-03-12T01:17:24;4.75;53.74
67572;SHT31;54397;47.506;19.158;2023-03-12T01:20:51;4.59;53.86
67572;SHT31;54397;47.506;19.158;2023-03-12T01:24:12;4.85;52.94
67572;SHT31;54397;47.506;19.158;2023-03-12T01:27:37;4.77;52.71
67572;SHT31;54397;47.506;19.158;2023-03-12T01:31:08;4.52;52.82
67572;SHT31;54397;47.506;19.158;2023-03-12T01:34:30;4.52;53.47
67572;SHT31;54397;47.506;19.158;2023-03-12T01:37:56;4.48;54.02
67572;SHT31;54397;47.506;19.158;2023-03-12T01:41:21;4.61;52.70
67572;SHT31;54397;47.506;19.158;2023-03-12T01:48:09;4.65;53.29
67572;SHT31;54397;47.506;19.158;2023-03-12T01:51:37;4.54;53.18
67572;SHT31;54397;47.506;19.158;2023-03-12T01:55:05;4.49;53.85
67572;SHT31;54397;47.506;19.158;2023-03-12T01:58:27;4.37;53.37
67572;SHT31;54397;47.506;19.158;2023-03-12T02:01:51;4.31;54.48
67572;SHT31;54397;47.506;19.158;2023-03-12T02:08:49;4.42;54.14
67572;SHT31;54397;47.506;19.158;2023-03-12T02:12:11;4.31;53.11
67572;SHT31;54397;47.506;19.158;2023-03-12T02:15:34;4.11;54.67
67572;SHT31;54397;47.506;19.158;2023-03-12T02:18:56;4.03;54.74
67572;SHT31;54397;47.506;19.158;2023-03-12T02:22:21;4.00;53.74
67572;SHT31;54397;47.506;19.158;2023-03-12T02:25:46;3.89;54.41
67572;SHT31;54397;47.506;19.158;2023-03-12T02:29:12;3.85;55.32
67572;SHT31;54397;47.506;19.158;2023-03-12T02:32:40;4.17;54.48
67572;SHT31;54397;47.506;19.158;2023-03-12T02:36:03;4.10;55.46
67572;SHT31;54397;47.506;19.158;2023-03-12T02:39:25;4.30;54.27
67572;SHT31;54397;47.506;19.158;2023-03-12T02:42:50;4.04;54.44
67572;SHT31;54397;47.506;19.158;2023-03-12T02:46:15;3.80;56.20
67572;SHT31;54397;47.506;19.158;2023-03-12T02:49:37;3.93;55.27
67572;SHT31;54397;47.506;19.158;2023-03-12T02:53:01;3.94;55.39
67572;SHT31;54397;47.506;19.158;2023-03-12T02:56:27;4.11;55.18
67572;SHT31;54397;47.506;19.158;2023-03-12T02:59:49;4.13;54.70
67572;SHT31;54397;47.506;19.158;2023-03-12T03:03:10;3.80;55.23
67572;SHT31;54397;47.506;19.158;2023-03-12T03:06:33;3.75;56.08
67572;SHT31;54397;47.506;19.158;2023-03-12T03:09:55;3.78;56.34
67572;SHT31;54397;47.506;19.158;2023-03-12T03:13:24;3.59;57.20
67572;SHT31;54397;47.506;19.158;2023-03-12T03:16:48;3.63;57.38
67572;SHT31;54397;47.506;19.158;2023-03-12T03:20:10;3.35;57.26
67572;SHT31;54397;47.506;19.158;2023-03-12T03:23:33;3.43;57.89
67572;SHT31;54397;47.506;19.158;2023-03-12T03:26:55;3.20;58.62
67572;SHT31;54397;47.506;19.158;2023-03-12T03:30:17;3.25;59.08
67572;SHT31;54397;47.506;19.158;2023-03-12T03:33:41;3.21;59.07
67572;SHT31;54397;47.506;19.158;2023-03-12T03:37:03;3.14;59.93
67572;SHT31;54397;47.506;19.158;2023-03-12T03:40:24;3.28;59.74
67572;SHT31;54397;47.506;19.158;2023-03-12T03:43:46;3.07;60.06
67572;SHT31;54397;47.506;19.158;2023-03-12T03:47:10;3.14;60.87
67572;SHT31;54397;47.506;19.158;2023-03-12T03:50:31;3.31;60.49
67572;SHT31;54397;47.506;19.158;2023-03-12T03:53:57;3.36;59.98
67572;SHT31;54397;47.506;19.158;2023-03-12T03:57:22;3.17;60.47
67572;SHT31;54397;47.506;19.158;2023-03-12T04:00:44;3.14;60.38
67572;SHT31;54397;47.506;19.158;2023-03-12T04:04:06;3.18;60.31
67572;SHT31;54397;47.506;19.158;2023-03-12T04:07:28;3.22;60.87
67572;SHT31;54397;47.506;19.158;2023-03-12T04:10:50;3.20;60.95
67572;SHT31;54397;47.506;19.158;2023-03-12T04:14:14;3.04;62.18
67572;SHT31;54397;47.506;19.158;2023-03-12T04:17:36;3.20;61.36
67572;SHT31;54397;47.506;19.158;2023-03-12T04:20:58;2.92;62.60
67572;SHT31;54397;47.506;19.158;2023-03-12T04:24:19;3.00;62.08
67572;SHT31;54397;47.506;19.158;2023-03-12T04:27:41;3.04;62.76
67572;SHT31;54397;47.506;19.158;2023-03-12T04:31:05;3.17;62.13
67572;SHT31;54397;47.506;19.158;2023-03-12T04:34:30;3.14;62.41
67572;SHT31;54397;47.506;19.158;2023-03-12T04:37:52;3.27;61.79
67572;SHT31;54397;47.506;19.158;2023-03-12T04:41:17;3.18;62.29
67572;SHT31;54397;47.506;19.158;2023-03-12T04:44:38;3.03;62.98
67572;SHT31;54397;47.506;19.158;2023-03-12T04:48:02;2.87;63.46
67572;SHT31;54397;47.506;19.158;2023-03-12T04:51:24;2.87;64.00
67572;SHT31;54397;47.506;19.158;2023-03-12T04:54:46;3.04;62.95
67572;SHT31;54397;47.506;19.158;2023-03-12T04:58:08;3.11;62.55
67572;SHT31;54397;47.506;19.158;2023-03-12T05:01:32;3.00;62.63
67572;SHT31;54397;47.506;19.158;2023-03-12T05:04:56;2.90;63.13
67572;SHT31;54397;47.506;19.158;2023-03-12T05:08:18;3.04;62.41
67572;SHT31;54397;47.506;19.158;2023-03-12T05:11:40;2.73;63.46
67572;SHT31;54397;47.506;19.158;2023-03-12T05:15:02;2.73;64.36
67572;SHT31;54397;47.506;19.158;2023-03-12T05:18:26;2.86;64.59
67572;SHT31;54397;47.506;19.158;2023-03-12T05:21:48;2.92;63.80
67572;SHT31;54397;47.506;19.158;2023-03-12T05:25:12;2.77;64.41
67572;SHT31;54397;47.506;19.158;2023-03-12T05:28:33;2.84;65.24
67572;SHT31;54397;47.506;19.158;2023-03-12T05:31:55;2.75;66.18
67572;SHT31;54397;47.506;19.158;2023-03-12T05:35:19;3.13;65.04
67572;SHT31;54397;47.506;19.158;2023-03-12T05:38:44;3.04;65.35
67572;SHT31;54397;47.506;19.158;2023-03-12T05:42:05;3.04;64.88
67572;SHT31;54397;47.506;19.158;2023-03-12T05:45:27;2.96;64.59
67572;SHT31;54397;47.506;19.158;2023-03-12T05:48:52;3.04;64.90
67572;SHT31;54397;47.506;19.158;2023-03-12T05:52:16;3.14;65.09
67572;SHT31;54397;47.506;19.158;2023-03-12T05:55:38;2.82;65.50
67572;SHT31;54397;47.506;19.158;2023-03-12T05:59:00;3.36;64.33
67572;SHT31;54397;47.506;19.158;2023-03-12T06:02:24;2.97;63.95
67572;SHT31;54397;47.506;19.158;2023-03-12T06:05:48;2.82;65.67
67572;SHT31;54397;47.506;19.158;2023-03-12T06:09:10;2.94;65.24
67572;SHT31;54397;47.506;19.158;2023-03-12T06:12:32;2.67;65.67
67572;SHT31;54397;47.506;19.158;2023-03-12T06:16:11;3.34;64.77
67572;SHT31;54397;47.506;19.158;2023-03-12T06:19:35;3.24;64.24
67572;SHT31;54397;47.506;19.158;2023-03-12T06:22:57;3.30;63.85
67572;SHT31;54397;47.506;19.158;2023-03-12T06:26:20;3.58;62.83
67572;SHT31;54397;47.506;19.158;2023-03-12T06:29:42;3.83;62.06
67572;SHT31;54397;47.506;19.158;2023-03-12T06:33:06;3.20;63.96
67572;SHT31;54397;47.506;19.158;2023-03-12T06:36:29;2.82;65.54
67572;SHT31;54397;47.506;19.158;2023-03-12T06:39:53;3.31;64.05
67572;SHT31;54397;47.506;19.158;2023-03-12T06:43:15;3.83;63.20
67572;SHT31;54397;47.506;19.158;2023-03-12T06:46:37;4.77;59.31
67572;SHT31;54397;47.506;19.158;2023-03-12T06:49:59;5.23;57.87
67572;SHT31;54397;47.506;19.158;2023-03-12T06:53:21;5.52;55.74
67572;SHT31;54397;47.506;19.158;2023-03-12T06:56:43;5.43;57.10
67572;SHT31;54397;47.506;19.158;2023-03-12T07:00:05;5.50;56.06
67572;SHT31;54397;47.506;19.158;2023-03-12T07:03:28;5.48;55.26
67572;SHT31;54397;47.506;19.158;2023-03-12T07:06:54;5.47;55.81
67572;SHT31;54397;47.506;19.158;2023-03-12T07:10:18;4.73;58.22
67572;SHT31;54397;47.506;19.158;2023-03-12T07:13:41;5.22;58.04
67572;SHT31;54397;47.506;19.158;2023-03-12T07:17:03;4.65;57.09
67572;SHT31;54397;47.506;19.158;2023-03-12T07:20:24;5.55;56.21
67572;SHT31;54397;47.506;19.158;2023-03-12T07:23:49;6.65;54.68
67572;SHT31;54397;47.506;19.158;2023-03-12T07:27:13;7.71;51.10
67572;SHT31;54397;47.506;19.158;2023-03-12T07:30:35;8.09;48.84
67572;SHT31;54397;47.506;19.158;2023-03-12T07:33:56;8.75;47.02
67572;SHT31;54397;47.506;19.158;2023-03-12T07:37:21;7.72;46.98
67572;SHT31;54397;47.506;19.158;2023-03-12T07:40:58;6.84;50.64
67572;SHT31;54397;47.506;19.158;2023-03-12T07:44:23;7.20;51.67
67572;SHT31;54397;47.506;19.158;2023-03-12T07:47:47;7.82;48.77
67572;SHT31;54397;47.506;19.158;2023-03-12T07:51:14;7.58;49.60
67572;SHT31;54397;47.506;19.158;2023-03-12T07:54:37;8.75;46.80
67572;SHT31;54397;47.506;19.158;2023-03-12T07:57:59;9.61;46.95
67572;SHT31;54397;47.506;19.158;2023-03-12T08:01:25;8.82;45.02
67572;SHT31;54397;47.506;19.158;2023-03-12T08:04:52;9.61;43.46
67572;SHT31;54397;47.506;19.158;2023-03-12T08:08:14;8.95;44.55
67572;SHT31;54397;47.506;19.158;2023-03-12T08:11:36;9.78;43.80
67572;SHT31;54397;47.506;19.158;2023-03-12T08:14:57;9.30;43.96
67572;SHT31;54397;47.506;19.158;2023-03-12T08:18:24;9.46;44.34
67572;SHT31;54397;47.506;19.158;2023-03-12T08:21:46;9.83;43.49
67572;SHT31;54397;47.506;19.158;2023-03-12T08:25:13;10.16;41.99
67572;SHT31;54397;47.506;19.158;2023-03-12T08:28:34;9.32;42.94
67572;SHT31;54397;47.506;19.158;2023-03-12T08:31:56;9.08;44.10
67572;SHT31;54397;47.506;19.158;2023-03-12T08:35:25;8.41;45.95
67572;SHT31;54397;47.506;19.158;2023-03-12T08:38:48;8.53;45.64
67572;SHT31;54397;47.506;19.158;2023-03-12T08:42:12;9.02;45.68
67572;SHT31;54397;47.506;19.158;2023-03-12T08:45:33;8.64;44.53
67572;SHT31;54397;47.506;19.158;2023-03-12T08:48:58;9.43;44.28
67572;SHT31;54397;47.506;19.158;2023-03-12T08:52:22;9.60;43.12
67572;SHT31;54397;47.506;19.158;2023-03-12T08:55:44;10.22;41.75
67572;SHT31;54397;47.506;19.158;2023-03-12T08:59:10;10.01;41.51
67572;SHT31;54397;47.506;19.158;2023-03-12T09:02:34;8.84;43.19
67572;SHT31;54397;47.506;19.158;2023-03-12T09:06:04;8.82;44.92
67572;SHT31;54397;47.506;19.158;2023-03-12T09:09:30;9.42;43.06
67572;SHT31;54397;47.506;19.158;2023-03-12T09:12:54;9.83;42.60
67572;SHT31;54397;47.506;19.158;2023-03-12T09:16:16;10.60;40.85
67572;SHT31;54397;47.506;19.158;2023-03-12T09:19:38;10.97;39.38
67572;SHT31;54397;47.506;19.158;2023-03-12T09:23:00;10.42;41.25
67572;SHT31;54397;47.506;19.158;2023-03-12T09:26:21;10.90;40.11
67572;SHT31;54397;47.506;19.158;2023-03-12T09:29:43;9.81;41.34
67572;SHT31;54397;47.506;19.158;2023-03-12T09:33:19;9.71;40.25
67572;SHT31;54397;47.506;19.158;2023-03-12T09:36:43;9.70;42.23
67572;SHT31;54397;47.506;19.158;2023-03-12T09:40:06;9.94;39.70
67572;SHT31;54397;47.506;19.158;2023-03-12T09:43:40;10.26;40.01
67572;SHT31;54397;47.506;19.158;2023-03-12T09:47:19;10.79;40.31
67572;SHT31;54397;47.506;19.158;2023-03-12T09:50:47;11.49;37.55
67572;SHT31;54397;47.506;19.158;2023-03-12T09:54:32;9.48;40.12
67572;SHT31;54397;47.506;19.158;2023-03-12T09:57:55;10.60;38.33
67572;SHT31;54397;47.506;19.158;2023-03-12T10:01:36;11.38;37.54
67572;SHT31;54397;47.506;19.158;2023-03-12T10:09:18;12.31;35.31
67572;SHT31;54397;47.506;19.158;2023-03-12T10:27:58;11.12;34.14
67572;SHT31;54397;47.506;19.158;2023-03-12T10:34:58;12.31;34.23
67572;SHT31;54397;47.506;19.158;2023-03-12T10:38:31;13.47;32.86
67572;SHT31;54397;47.506;19.158;2023-03-12T10:41:54;13.81;31.34
67572;SHT31;54397;47.506;19.158;2023-03-12T10:45:39;14.41;30.43
67572;SHT31;54397;47.506;19.158;2023-03-12T10:52:44;13.07;31.04
67572;SHT31;54397;47.506;19.158;2023-03-12T10:56:11;14.19;30.32
67572;SHT31;54397;47.506;19.158;2023-03-12T10:59:41;14.44;30.36
67572;SHT31;54397;47.506;19.158;2023-03-12T11:03:18;14.54;29.49
67572;SHT31;54397;47.506;19.158;2023-03-12T11:06:41;14.03;29.25
67572;SHT31;54397;47.506;19.158;2023-03-12T11:16:54;15.61;26.05
67572;SHT31;54397;47.506;19.158;2023-03-12T11:23:45;15.49;27.20
67572;SHT31;54397;47.506;19.158;2023-03-12T11:27:48;15.60;26.63
67572;SHT31;54397;47.506;19.158;2023-03-12T11:31:24;15.32;26.48
67572;SHT31;54397;47.506;19.158;2023-03-12T11:34:50;15.60;25.51
67572;SHT31;54397;47.506;19.158;2023-03-12T11:38:24;16.04;23.21
67572;SHT31;54397;47.506;19.158;2023-03-12T11:45:30;16.25;24.83
67572;SHT31;54397;47.506;19.158;2023-03-12T12:00:08;16.06;25.39
67572;SHT31;54397;47.506;19.158;2023-03-12T12:07:19;16.11;24.54
67572;SHT31;54397;47.506;19.158;2023-03-12T12:14:21;16.63;25.72
67572;SHT31;54397;47.506;19.158;2023-03-12T12:26:09;14.27;26.78
67572;SHT31;54397;47.506;19.158;2023-03-12T12:36:49;16.26;25.94
67572;SHT31;54397;47.506;19.158;2023-03-12T12:40:20;15.53;25.47
67572;SHT31;54397;47.506;19.158;2023-03-12T12:43:49;15.97;25.86
67572;SHT31;54397;47.506;19.158;2023-03-12T12:47:17;15.18;23.94
67572;SHT31;54397;47.506;19.158;2023-03-12T12:50:44;15.06;24.52
67572;SHT31;54397;47.506;19.158;2023-03-12T13:01:16;12.61;25.29
67572;SHT31;54397;47.506;19.158;2023-03-12T13:04:38;13.07;26.50
67572;SHT31;54397;47.506;19.158;2023-03-12T13:08:04;12.56;25.66
67572;SHT31;54397;47.506;19.158;2023-03-12T13:11:29;11.94;28.73
67572;SHT31;54397;47.506;19.158;2023-03-12T13:14:59;12.93;38.84
67572;SHT31;54397;47.506;19.158;2023-03-12T13:18:27;13.93;34.32
67572;SHT31;54397;47.506;19.158;2023-03-12T13:22:08;14.20;28.72
67572;SHT31;54397;47.506;19.158;2023-03-12T13:26:00;14.10;28.25
67572;SHT31;54397;47.506;19.158;2023-03-12T13:39:37;13.28;23.10
67572;SHT31;54397;47.506;19.158;2023-03-12T13:43:15;12.73;22.62
67572;SHT31;54397;47.506;19.158;2023-03-12T13:47:00;12.46;21.40
67572;SHT31;54397;47.506;19.158;2023-03-12T13:50:26;12.73;22.97
67572;SHT31;54397;47.506;19.158;2023-03-12T13:53:51;12.55;22.44
67572;SHT31;54397;47.506;19.158;2023-03-12T14:01:06;13.28;23.98
67572;SHT31;54397;47.506;19.158;2023-03-12T14:04:39;13.24;23.93
67572;SHT31;54397;47.506;19.158;2023-03-12T14:18:44;12.04;32.73
67572;SHT31;54397;47.506;19.158;2023-03-12T14:22:10;13.20;32.91
67572;SHT31;54397;47.506;19.158;2023-03-12T14:25:36;14.01;34.56
67572;SHT31;54397;47.506;19.158;2023-03-12T14:29:17;13.33;24.91
67572;SHT31;54397;47.506;19.158;2023-03-12T14:32:41;12.46;24.41
67572;SHT31;54397;47.506;19.158;2023-03-12T14:36:12;12.56;34.90
67572;SHT31;54397;47.506;19.158;2023-03-12T14:39:45;11.97;25.99
67572;SHT31;54397;47.506;19.158;2023-03-12T14:43:23;11.03;25.22
67572;SHT31;54397;47.506;19.158;2023-03-12T14:46:47;12.24;32.20
67572;SHT31;54397;47.506;19.158;2023-03-12T14:50:21;12.80;25.41
67572;SHT31;54397;47.506;19.158;2023-03-12T14:53:44;12.13;27.11
67572;SHT31;54397;47.506;19.158;2023-03-12T14:57:12;12.45;27.92
67572;SHT31;54397;47.506;19.158;2023-03-12T15:00:34;11.34;23.88
67572;SHT31;54397;47.506;19.158;2023-03-12T15:03:58;11.67;24.03
67572;SHT31;54397;47.506;19.158;2023-03-12T15:07:33;11.67;24.54
67572;SHT31;54397;47.506;19.158;2023-03-12T15:10:59;12.55;24.02
67572;SHT31;54397;47.506;19.158;2023-03-12T15:14:24;12.24;22.26
67572;SHT31;54397;47.506;19.158;2023-03-12T15:17:47;12.18;25.21
67572;SHT31;54397;47.506;19.158;2023-03-12T15:21:12;11.75;23.32
67572;SHT31;54397;47.506;19.158;2023-03-12T15:24:38;11.01;22.64
67572;SHT31;54397;47.506;19.158;2023-03-12T15:28:03;10.63;23.42
67572;SHT31;54397;47.506;19.158;2023-03-12T15:31:26;11.00;25.31
67572;SHT31;54397;47.506;19.158;2023-03-12T15:34:51;11.12;23.62
67572;SHT31;54397;47.506;19.158;2023-03-12T15:38:16;11.29;25.63
67572;SHT31;54397;47.506;19.158;2023-03-12T15:41:43;10.94;24.80
67572;SHT31;54397;47.506;19.158;2023-03-12T15:49:00;10.74;25.98
67572;SHT31;54397;47.506;19.158;2023-03-12T15:56:02;11.24;26.11
67572;SHT31;54397;47.506;19.158;2023-03-12T15:59:28;10.96;25.27
67572;SHT31;54397;47.506;19.158;2023-03-12T16:03:03;10.53;25.82
67572;SHT31;54397;47.506;19.158;2023-03-12T16:06:26;10.25;26.03
67572;SHT31;54397;47.506;19.158;2023-03-12T16:09:50;10.31;26.17
67572;SHT31;54397;47.506;19.158;2023-03-12T16:13:14;10.15;25.97
67572;SHT31;54397;47.506;19.158;2023-03-12T16:16:36;10.16;25.94
67572;SHT31;54397;47.506;19.158;2023-03-12T16:19:58;10.26;26.36
67572;SHT31;54397;47.506;19.158;2023-03-12T16:23:19;10.02;25.19
67572;SHT31;54397;47.506;19.158;2023-03-12T16:26:53;9.93;25.28
67572;SHT31;54397;47.506;19.158;2023-03-12T16:30:27;9.94;25.68
67572;SHT31;54397;47.506;19.158;2023-03-12T16:33:52;9.97;26.03
67572;SHT31;54397;47.506;19.158;2023-03-12T16:37:13;10.04;27.07
67572;SHT31;54397;47.506;19.158;2023-03-12T16:40:38;10.14;26.09
67572;SHT31;54397;47.506;19.158;2023-03-12T16:44:05;10.12;26.02
67572;SHT31;54397;47.506;19.158;2023-03-12T16:47:31;10.22;25.76
67572;SHT31;54397;47.506;19.158;2023-03-12T16:50:55;10.01;26.95
67572;SHT31;54397;47.506;19.158;2023-03-12T16:54:18;10.15;27.31
67572;SHT31;54397;47.506;19.158;2023-03-12T16:57:51;10.08;26.68
67572;SHT31;54397;47.506;19.158;2023-03-12T17:01:16;9.95;26.84
67572;SHT31;54397;47.506;19.158;2023-03-12T17:04:39;9.93;27.42
67572;SHT31;54397;47.506;19.158;2023-03-12T17:08:03;9.70;28.44
67572;SHT31;54397;47.506;19.158;2023-03-12T17:11:27;9.47;29.13
67572;SHT31;54397;47.506;19.158;2023-03-12T17:14:52;9.46;29.48
67572;SHT31;54397;47.506;19.158;2023-03-12T17:18:15;9.46;28.77
67572;SHT31;54397;47.506;19.158;2023-03-12T17:21:36;9.61;29.45
67572;SHT31;54397;47.506;19.158;2023-03-12T17:24:58;9.54;29.60
67572;SHT31;54397;47.506;19.158;2023-03-12T17:28:20;9.32;30.76
67572;SHT31;54397;47.506;19.158;2023-03-12T17:31:41;9.27;30.79
67572;SHT31;54397;47.506;19.158;2023-03-12T17:35:05;9.22;31.27
67572;SHT31;54397;47.506;19.158;2023-03-12T17:38:30;9.26;30.79
67572;SHT31;54397;47.506;19.158;2023-03-12T17:41:53;9.26;32.08
67572;SHT31;54397;47.506;19.158;2023-03-12T17:45:15;9.16;32.44
67572;SHT31;54397;47.506;19.158;2023-03-12T17:48:37;9.15;31.34
67572;SHT31;54397;47.506;19.158;2023-03-12T17:52:00;8.89;32.55
67572;SHT31;54397;47.506;19.158;2023-03-12T17:55:22;8.75;33.64
67572;SHT31;54397;47.506;19.158;2023-03-12T17:58:44;8.77;35.94
67572;SHT31;54397;47.506;19.158;2023-03-12T18:02:06;8.97;35.87
67572;SHT31;54397;47.506;19.158;2023-03-12T18:05:30;8.92;46.24
67572;SHT31;54397;47.506;19.158;2023-03-12T18:08:51;9.06;43.12
67572;SHT31;54397;47.506;19.158;2023-03-12T18:12:15;9.25;43.46
67572;SHT31;54397;47.506;19.158;2023-03-12T18:15:39;9.23;45.65
67572;SHT31;54397;47.506;19.158;2023-03-12T18:19:01;9.23;44.44
67572;SHT31;54397;47.506;19.158;2023-03-12T18:22:23;8.99;37.70
67572;SHT31;54397;47.506;19.158;2023-03-12T18:25:45;8.60;35.51
67572;SHT31;54397;47.506;19.158;2023-03-12T18:29:07;8.20;35.51
67572;SHT31;54397;47.506;19.158;2023-03-12T18:32:31;8.10;35.39
67572;SHT31;54397;47.506;19.158;2023-03-12T18:35:54;7.91;39.15
67572;SHT31;54397;47.506;19.158;2023-03-12T18:39:16;7.93;39.44
67572;SHT31;54397;47.506;19.158;2023-03-12T18:42:38;7.64;41.21
67572;SHT31;54397;47.506;19.158;2023-03-12T18:46:05;7.38;41.67
67572;SHT31;54397;47.506;19.158;2023-03-12T18:49:27;7.47;40.59
67572;SHT31;54397;47.506;19.158;2023-03-12T18:52:52;7.31;40.28
67572;SHT31;54397;47.506;19.158;2023-03-12T18:56:15;7.31;44.42
67572;SHT31;54397;47.506;19.158;2023-03-12T18:59:38;7.31;51.66
67572;SHT31;54397;47.506;19.158;2023-03-12T19:02:59;7.51;51.04
67572;SHT31;54397;47.506;19.158;2023-03-12T19:06:21;7.58;49.33
67572;SHT31;54397;47.506;19.158;2023-03-12T19:09:43;7.60;48.99
67572;SHT31;54397;47.506;19.158;2023-03-12T19:13:08;7.71;48.44
67572;SHT31;54397;47.506;19.158;2023-03-12T19:16:30;7.75;48.54
67572;SHT31;54397;47.506;19.158;2023-03-12T19:19:52;7.74;43.27
67572;SHT31;54397;47.506;19.158;2023-03-12T19:23:14;7.37;41.67
67572;SHT31;54397;47.506;19.158;2023-03-12T19:26:39;7.05;41.43
67572;SHT31;54397;47.506;19.158;2023-03-12T19:30:03;6.96;41.56
67572;SHT31;54397;47.506;19.158;2023-03-12T19:33:28;6.65;42.09
67572;SHT31;54397;47.506;19.158;2023-03-12T19:36:50;6.58;42.06
67572;SHT31;54397;47.506;19.158;2023-03-12T19:40:12;6.40;41.51
67572;SHT31;54397;47.506;19.158;2023-03-12T19:43:34;6.02;43.58
67572;SHT31;54397;47.506;19.158;2023-03-12T19:46:57;6.05;43.28
67572;SHT31;54397;47.506;19.158;2023-03-12T19:50:22;5.96;42.67
67572;SHT31;54397;47.506;19.158;2023-03-12T19:53:44;6.02;42.81
67572;SHT31;54397;47.506;19.158;2023-03-12T19:57:06;5.89;42.88
67572;SHT31;54397;47.506;19.158;2023-03-12T20:00:30;5.61;44.73
67572;SHT31;54397;47.506;19.158;2023-03-12T20:03:55;5.44;45.05
67572;SHT31;54397;47.506;19.158;2023-03-12T20:07:16;5.55;56.41
67572;SHT31;54397;47.506;19.158;2023-03-12T20:10:38;6.16;54.26
67572;SHT31;54397;47.506;19.158;2023-03-12T20:14:01;6.52;52.90
67572;SHT31;54397;47.506;19.158;2023-03-12T20:17:23;6.92;51.32
67572;SHT31;54397;47.506;19.158;2023-03-12T20:20:45;7.12;52.82
67572;SHT31;54397;47.506;19.158;2023-03-12T20:24:09;7.51;50.73
67572;SHT31;54397;47.506;19.158;2023-03-12T20:27:31;7.53;47.66
67572;SHT31;54397;47.506;19.158;2023-03-12T20:30:55;7.00;42.80
67572;SHT31;54397;47.506;19.158;2023-03-12T20:34:19;6.50;44.78
67572;SHT31;54397;47.506;19.158;2023-03-12T20:37:43;6.17;45.70
67572;SHT31;54397;47.506;19.158;2023-03-12T20:41:10;5.93;45.46
67572;SHT31;54397;47.506;19.158;2023-03-12T20:44:34;5.73;46.21
67572;SHT31;54397;47.506;19.158;2023-03-12T20:47:56;5.44;46.73
67572;SHT31;54397;47.506;19.158;2023-03-12T20:51:19;5.52;47.29
67572;SHT31;54397;47.506;19.158;2023-03-12T20:54:40;5.48;46.86
67572;SHT31;54397;47.506;19.158;2023-03-12T20:58:05;5.31;47.17
67572;SHT31;54397;47.506;19.158;2023-03-12T21:01:30;5.27;48.04
67572;SHT31;54397;47.506;19.158;2023-03-12T21:04:54;4.93;46.53
67572;SHT31;54397;47.506;19.158;2023-03-12T21:08:15;4.85;47.32
67572;SHT31;54397;47.506;19.158;2023-03-12T21:11:37;5.01;49.23
67572;SHT31;54397;47.506;19.158;2023-03-12T21:15:00;5.26;58.41
67572;SHT31;54397;47.506;19.158;2023-03-12T21:18:26;5.43;58.97
67572;SHT31;54397;47.506;19.158;2023-03-12T21:21:50;5.66;57.63
67572;SHT31;54397;47.506;19.158;2023-03-12T21:25:14;5.93;56.50
67572;SHT31;54397;47.506;19.158;2023-03-12T21:28:36;6.16;57.36
67572;SHT31;54397;47.506;19.158;2023-03-12T21:32:00;6.34;55.94
67572;SHT31;54397;47.506;19.158;2023-03-12T21:35:22;6.36;48.50
67572;SHT31;54397;47.506;19.158;2023-03-12T21:38:44;6.05;47.97
67572;SHT31;54397;47.506;19.158;2023-03-12T21:42:08;5.88;48.43
67572;SHT31;54397;47.506;19.158;2023-03-12T21:45:32;5.69;47.91
67572;SHT31;54397;47.506;19.158;2023-03-12T21:48:59;5.73;47.56
67572;SHT31;54397;47.506;19.158;2023-03-12T21:52:21;5.92;48.68
67572;SHT31;54397;47.506;19.158;2023-03-12T21:55:53;5.85;45.67
67572;SHT31;54397;47.506;19.158;2023-03-12T21:59:17;5.95;44.88
67572;SHT31;54397;47.506;19.158;2023-03-12T22:02:43;5.93;44.89
67572;SHT31;54397;47.506;19.158;2023-03-12T22:06:06;5.93;45.98
67572;SHT31;54397;47.506;19.158;2023-03-12T22:09:30;5.99;45.66
67572;SHT31;54397;47.506;19.158;2023-03-12T22:12:54;6.10;53.07
67572;SHT31;54397;47.506;19.158;2023-03-12T22:16:15;6.58;56.74
67572;SHT31;54397;47.506;19.158;2023-03-12T22:19:37;7.03;55.26
67572;SHT31;54397;47.506;19.158;2023-03-12T22:23:02;7.30;45.08
67572;SHT31;54397;47.506;19.158;2023-03-12T22:26:24;7.23;44.08
67572;SHT31;54397;47.506;19.158;2023-03-12T22:29:46;7.00;44.33
67572;SHT31;54397;47.506;19.158;2023-03-12T22:33:09;7.09;44.66
67572;SHT31;54397;47.506;19.158;2023-03-12T22:36:31;6.93;44.98
67572;SHT31;54397;47.506;19.158;2023-03-12T22:39:53;6.84;44.71
67572;SHT31;54397;47.506;19.158;2023-03-12T22:43:18;6.93;44.93
67572;SHT31;54397;47.506;19.158;2023-03-12T22:46:40;6.64;45.49
67572;SHT31;54397;47.506;19.158;2023-03-12T22:50:04;6.57;45.45
67572;SHT31;54397;47.506;19.158;2023-03-12T22:53:26;6.58;45.64
67572;SHT31;54397;47.506;19.158;2023-03-12T22:56:50;6.57;45.86
67572;SHT31;54397;47.506;19.158;2023-03-12T23:00:15;6.63;45.53
67572;SHT31;54397;47.506;19.158;2023-03-12T23:03:43;6.72;45.77
67572;SHT31;54397;47.506;19.158;2023-03-12T23:07:05;6.86;45.15
67572;SHT31;54397;47.506;19.158;2023-03-12T23:10:37;6.92;45.65
67572;SHT31;54397;47.506;19.158;2023-03-12T23:13:58;7.03;45.18
67572;SHT31;54397;47.506;19.158;2023-03-12T23:17:20;7.12;45.53
67572;SHT31;54397;47.506;19.158;2023-03-12T23:20:42;7.10;46.27
67572;SHT31;54397;47.506;19.158;2023-03-12T23:24:07;7.16;45.23
67572;SHT31;54397;47.506;19.158;2023-03-12T23:27:30;7.13;45.92
67572;SHT31;54397;47.506;19.158;2023-03-12T23:31:03;7.13;45.76